Time;durP1;ratioP1;P1;durP2;ratioP2;P2;SDS_P1;SDS_P2;PMS_P1;PMS_P2;Temp;Humidity;BMP_temperature;BMP_pressure;BME280_temperature;BME280_humidity;BME280_pressure;Samples;Min_cycle;Max_cycle;Signal;HPM_P1;HPM_P2
2021/04/02 00:00:28;;;;;;;;;;;22.90;29.20;;;;;;5056475;28;20359;-61
2021/04/02 00:02:54;;;;;;;;;;;22.90;29.20;;;;;;5045445;28;20355;-62
2021/04/02 00:05:20;;;;;;;;;;;22.90;29.20;;;;;;5056130;28;19971;-61
2021/04/02 00:07:46;;;;;;;;;;;22.90;29.20;;;;;;5048239;28;20015;-62
2021/04/02 00:10:13;;;;;;;;;;;22.90;29.20;;;;;;5037423;28;20400;-61
2021/04/02 00:12:39;;;;;;;;;;;22.90;29.20;;;;;;5055816;28;20063;-62
2021/04/02 00:15:07;;;;;;;;;;;22.90;29.20;;;;;;5046600;28;19951;-62
2021/04/02 00:17:33;;;;;;;;;;;22.90;29.20;;;;;;5043912;28;19913;-62
2021/04/02 00:19:58;;;;;;;;;;;22.80;29.10;;;;;;5054573;28;19950;-61
2021/04/02 00:22:24;;;;;;;;;;;22.90;29.20;;;;;;5056148;28;19915;-61
2021/04/02 00:24:49;;;;;;;;;;;22.80;29.10;;;;;;5055494;28;19921;-63
2021/04/02 00:27:15;;;;;;;;;;;22.90;29.20;;;;;;5054386;28;19928;-62
2021/04/02 00:29:41;;;;;;;;;;;22.80;29.10;;;;;;5049783;28;20275;-62
2021/04/02 00:32:07;;;;;;;;;;;22.80;29.10;;;;;;5055525;28;19916;-61
2021/04/02 00:34:32;;;;;;;;;;;22.80;29.10;;;;;;5055525;28;19923;-62
2021/04/02 00:36:59;;;;;;;;;;;22.80;29.10;;;;;;5055324;28;19970;-61
2021/04/02 00:39:24;;;;;;;;;;;22.80;29.10;;;;;;5052385;28;19912;-62
2021/04/02 00:41:50;;;;;;;;;;;22.80;29.10;;;;;;5054629;28;19966;-62
2021/04/02 00:44:16;;;;;;;;;;;22.80;29.10;;;;;;5041604;28;19916;-62
2021/04/02 00:46:41;;;;;;;;;;;22.80;29.10;;;;;;5049740;28;20327;-62
2021/04/02 00:49:07;;;;;;;;;;;22.80;29.10;;;;;;5055250;28;19916;-62
2021/04/02 00:51:33;;;;;;;;;;;22.80;29.10;;;;;;5054607;28;19909;-62
2021/04/02 00:53:58;;;;;;;;;;;22.80;29.10;;;;;;5054990;28;19909;-60
2021/04/02 00:56:24;;;;;;;;;;;22.80;29.10;;;;;;5049333;28;19908;-62
2021/04/02 00:58:50;;;;;;;;;;;22.80;29.10;;;;;;5045707;28;19909;-62
2021/04/02 01:01:16;;;;;;;;;;;22.80;29.10;;;;;;5052410;28;19909;-61
2021/04/02 01:03:45;;;;;;;;;;;22.70;29.10;;;;;;5053367;28;19909;-62
2021/04/02 01:06:16;;;;;;;;;;;22.80;29.10;;;;;;5055180;28;19909;-61
2021/04/02 01:08:42;;;;;;;;;;;22.70;29.10;;;;;;5054652;28;19909;-61
2021/04/02 01:11:10;;;;;;;;;;;22.80;29.10;;;;;;5053698;28;19920;-61
2021/04/02 01:13:36;;;;;;;;;;;22.70;29.10;;;;;;5048933;28;19908;-62
2021/04/02 01:16:05;;;;;;;;;;;22.70;29.10;;;;;;5052911;28;19909;-61
2021/04/02 01:18:37;;;;;;;;;;;22.70;29.10;;;;;;5052802;28;19913;-61
2021/04/02 01:21:29;;;;;;;;;;;22.70;29.10;;;;;;5036801;28;19908;-61
2021/04/02 01:24:15;;;;;;;;;;;22.70;29.10;;;;;;5039431;28;19921;-62
2021/04/02 01:26:57;;;;;;;;;;;22.70;29.10;;;;;;5050299;28;19952;-61
2021/04/02 01:29:43;;;;;;;;;;;22.70;29.10;;;;;;5053608;28;19990;-61
2021/04/02 01:32:10;;;;;;;;;;;22.70;29.10;;;;;;5054594;28;19974;-60
2021/04/02 01:34:37;;;;;;;;;;;22.70;29.10;;;;;;5036349;28;19908;-61
2021/04/02 01:37:06;;;;;;;;;;;22.70;29.10;;;;;;5051050;28;20003;-61
2021/04/02 01:39:33;;;;;;;;;;;22.70;29.10;;;;;;5054033;28;20015;-61
2021/04/02 01:41:59;;;;;;;;;;;22.70;29.10;;;;;;5054764;28;20312;-59
2021/04/02 01:44:30;;;;;;;;;;;22.70;29.10;;;;;;5053132;28;19967;-60
2021/04/02 01:46:57;;;;;;;;;;;22.60;29.10;;;;;;5036567;28;20260;-61
2021/04/02 01:49:23;;;;;;;;;;;22.60;29.10;;;;;;5053102;28;19916;-60
2021/04/02 01:51:49;;;;;;;;;;;22.60;29.20;;;;;;5052528;28;19909;-61
2021/04/02 01:54:16;;;;;;;;;;;22.60;29.20;;;;;;5052501;28;19912;-61
2021/04/02 01:56:42;;;;;;;;;;;22.70;29.20;;;;;;5052403;28;20300;-61
2021/04/02 01:59:09;;;;;;;;;;;22.60;29.10;;;;;;5047042;28;19963;-60
2021/04/02 02:01:38;;;;;;;;;;;22.60;29.10;;;;;;5034280;28;19944;-62
2021/04/02 02:04:07;;;;;;;;;;;22.60;29.10;;;;;;5041206;28;19970;-61
2021/04/02 02:06:37;;;;;;;;;;;22.60;29.10;;;;;;5053318;28;19909;-63
2021/04/02 02:09:16;;;;;;;;;;;22.60;29.10;;;;;;5052021;28;19917;-62
2021/04/02 02:11:43;;;;;;;;;;;22.60;29.10;;;;;;5054350;28;19948;-61
2021/04/02 02:14:14;;;;;;;;;;;22.60;29.10;;;;;;5050623;28;19924;-61
2021/04/02 02:16:50;;;;;;;;;;;22.60;29.10;;;;;;5053168;28;19908;-59
2021/04/02 02:19:20;;;;;;;;;;;22.60;29.10;;;;;;5049032;28;19908;-61
2021/04/02 02:21:49;;;;;;;;;;;22.60;29.10;;;;;;5053085;28;20621;-60
2021/04/02 02:24:17;;;;;;;;;;;22.60;29.10;;;;;;5044121;28;19927;-61
2021/04/02 02:26:44;;;;;;;;;;;22.60;29.10;;;;;;5036277;28;19921;-61
2021/04/02 02:29:12;;;;;;;;;;;22.60;29.10;;;;;;5049430;28;19909;-61
2021/04/02 02:31:39;;;;;;;;;;;22.60;29.10;;;;;;5052597;28;20058;-60
2021/04/02 02:34:06;;;;;;;;;;;22.60;29.10;;;;;;5052234;28;19908;-61
2021/04/02 02:36:40;;;;;;;;;;;22.60;29.10;;;;;;5053163;28;20247;-61
2021/04/02 02:39:11;;;;;;;;;;;22.60;29.10;;;;;;5053196;28;20217;-61
2021/04/02 02:41:40;;;;;;;;;;;22.60;29.10;;;;;;5053533;28;19908;-60
2021/04/02 02:44:07;;;;;;;;;;;22.50;29.00;;;;;;5053229;28;19917;-64
2021/04/02 02:46:33;;;;;;;;;;;22.60;29.10;;;;;;5052176;28;19915;-61
2021/04/02 02:49:01;;;;;;;;;;;22.50;29.00;;;;;;5038889;28;19909;-62
2021/04/02 02:51:29;;;;;;;;;;;22.50;29.00;;;;;;5043122;28;19909;-61
2021/04/02 02:53:57;;;;;;;;;;;22.50;29.00;;;;;;5041632;28;19909;-61
2021/04/02 02:56:23;;;;;;;;;;;22.50;29.00;;;;;;5025317;28;19944;-62
2021/04/02 02:58:51;;;;;;;;;;;22.50;29.00;;;;;;5049561;28;20347;-61
2021/04/02 03:01:17;;;;;;;;;;;22.50;29.10;;;;;;5051791;28;19908;-62
2021/04/02 03:03:45;;;;;;;;;;;22.50;29.10;;;;;;5038867;28;20328;-62
2021/04/02 03:06:14;;;;;;;;;;;22.50;29.00;;;;;;5056469;28;19909;-61
2021/04/02 03:08:45;;;;;;;;;;;22.50;29.10;;;;;;5055963;28;19955;-62
2021/04/02 03:11:14;;;;;;;;;;;22.40;29.00;;;;;;5057251;28;19923;-62
2021/04/02 03:13:40;;;;;;;;;;;22.50;29.00;;;;;;5056336;28;19909;-62
2021/04/02 03:16:07;;;;;;;;;;;22.50;29.00;;;;;;5055848;28;19917;-62
2021/04/02 03:18:33;;;;;;;;;;;22.50;29.00;;;;;;5055940;28;19919;-62
2021/04/02 03:21:03;;;;;;;;;;;22.50;29.00;;;;;;5039503;28;19908;-60
2021/04/02 03:23:30;;;;;;;;;;;22.50;29.00;;;;;;5055575;28;19908;-61
2021/04/02 03:25:57;;;;;;;;;;;22.50;29.10;;;;;;5056825;28;19916;-61
2021/04/02 03:28:23;;;;;;;;;;;22.50;29.10;;;;;;5054693;28;19916;-61
2021/04/02 03:30:53;;;;;;;;;;;22.50;29.10;;;;;;5055490;28;19979;-61
2021/04/02 03:33:24;;;;;;;;;;;22.50;29.10;;;;;;5035815;28;19909;-62
2021/04/02 03:36:06;;;;;;;;;;;22.50;29.10;;;;;;5040202;28;20340;-63
2021/04/02 03:38:34;;;;;;;;;;;22.50;29.10;;;;;;5035866;28;20004;-61
2021/04/02 03:41:05;;;;;;;;;;;22.50;29.10;;;;;;5050898;28;20370;-61
2021/04/02 03:43:32;;;;;;;;;;;22.40;29.10;;;;;;5055009;28;19916;-61
2021/04/02 03:45:59;;;;;;;;;;;22.40;29.10;;;;;;5053075;28;19969;-61
2021/04/02 03:48:28;;;;;;;;;;;22.50;29.10;;;;;;5054250;28;19916;-61
2021/04/02 03:50:56;;;;;;;;;;;22.40;29.10;;;;;;5055050;28;20334;-62
2021/04/02 03:53:28;;;;;;;;;;;22.40;29.10;;;;;;5056694;28;19909;-61
2021/04/02 03:55:55;;;;;;;;;;;22.40;29.10;;;;;;5054569;28;20252;-62
2021/04/02 03:58:22;;;;;;;;;;;22.40;29.10;;;;;;5054612;28;20000;-62
2021/04/02 04:00:58;;;;;;;;;;;22.40;29.10;;;;;;5053891;28;19912;-62
2021/04/02 04:03:25;;;;;;;;;;;22.40;29.10;;;;;;5038487;28;19917;-61
2021/04/02 04:05:55;;;;;;;;;;;22.40;29.20;;;;;;5054541;28;19948;-62
2021/04/02 04:08:21;;;;;;;;;;;22.40;29.20;;;;;;5056528;28;20306;-61
2021/04/02 04:10:51;;;;;;;;;;;22.40;29.20;;;;;;5054078;28;19913;-62
2021/04/02 04:13:18;;;;;;;;;;;22.40;29.20;;;;;;5035211;28;19909;-59
2021/04/02 04:15:45;;;;;;;;;;;22.40;29.20;;;;;;5053419;28;19908;-61
2021/04/02 04:18:13;;;;;;;;;;;22.40;29.20;;;;;;5048904;28;19913;-60
2021/04/02 04:20:40;;;;;;;;;;;22.40;29.20;;;;;;5019332;28;19919;-60
2021/04/02 04:23:15;;;;;;;;;;;22.40;29.20;;;;;;5054561;28;19908;-61
2021/04/02 04:25:42;;;;;;;;;;;22.40;29.20;;;;;;5055482;28;20283;-61
2021/04/02 04:28:09;;;;;;;;;;;22.40;29.20;;;;;;5055410;28;19909;-62
2021/04/02 04:30:35;;;;;;;;;;;22.40;29.20;;;;;;5055284;28;19948;-63
2021/04/02 04:33:01;;;;;;;;;;;22.40;29.20;;;;;;5055409;28;19978;-64
2021/04/02 04:35:28;;;;;;;;;;;22.40;29.30;;;;;;5055001;28;20306;-62
2021/04/02 04:37:55;;;;;;;;;;;22.40;29.30;;;;;;5055691;28;19909;-62
2021/04/02 04:40:22;;;;;;;;;;;22.40;29.30;;;;;;5055433;28;19928;-61
2021/04/02 04:42:48;;;;;;;;;;;22.40;29.30;;;;;;5051538;28;19971;-62
2021/04/02 04:45:17;;;;;;;;;;;22.40;29.30;;;;;;5055478;28;19924;-62
2021/04/02 04:47:42;;;;;;;;;;;22.40;29.30;;;;;;5037708;28;20261;-62
2021/04/02 04:50:09;;;;;;;;;;;22.40;29.30;;;;;;5054524;28;19915;-62
2021/04/02 04:52:48;;;;;;;;;;;22.30;29.20;;;;;;5043743;28;20252;-61
2021/04/02 04:55:15;;;;;;;;;;;22.30;29.20;;;;;;5055137;28;20007;-59
2021/04/02 04:57:42;;;;;;;;;;;22.30;29.20;;;;;;5054429;28;19975;-64
2021/04/02 05:00:09;;;;;;;;;;;22.30;29.20;;;;;;5050657;28;19916;-61
2021/04/02 05:02:36;;;;;;;;;;;22.30;29.20;;;;;;5053133;28;19909;-62
2021/04/02 05:05:03;;;;;;;;;;;22.30;29.30;;;;;;5054934;28;20290;-61
2021/04/02 05:07:30;;;;;;;;;;;22.30;29.30;;;;;;5054694;28;19909;-61
2021/04/02 05:09:56;;;;;;;;;;;22.30;29.30;;;;;;5026935;28;20336;-62
2021/04/02 05:12:22;;;;;;;;;;;22.30;29.30;;;;;;5051782;28;19944;-61
2021/04/02 05:14:48;;;;;;;;;;;22.30;29.30;;;;;;5053988;28;19917;-60
2021/04/02 05:17:14;;;;;;;;;;;22.30;29.30;;;;;;5054641;28;19971;-62
2021/04/02 05:19:41;;;;;;;;;;;22.30;29.30;;;;;;5054589;28;19991;-60
2021/04/02 05:22:08;;;;;;;;;;;22.30;29.20;;;;;;5054511;28;19908;-60
2021/04/02 05:24:34;;;;;;;;;;;22.30;29.20;;;;;;5054451;28;20027;-61
2021/04/02 05:26:59;;;;;;;;;;;22.30;29.20;;;;;;5054181;28;19956;-61
2021/04/02 05:29:25;;;;;;;;;;;22.30;29.20;;;;;;5054598;28;19912;-61
2021/04/02 05:31:51;;;;;;;;;;;22.30;29.20;;;;;;5053838;28;19909;-62
2021/04/02 05:34:16;;;;;;;;;;;22.30;29.20;;;;;;5053625;28;19916;-61
2021/04/02 05:36:43;;;;;;;;;;;22.30;29.20;;;;;;5053705;28;20004;-61
2021/04/02 05:39:09;;;;;;;;;;;22.30;29.20;;;;;;5054423;28;20320;-61
2021/04/02 05:41:44;;;;;;;;;;;22.30;29.20;;;;;;5054477;28;19915;-62
2021/04/02 05:44:11;;;;;;;;;;;22.30;29.20;;;;;;5054191;28;19916;-61
2021/04/02 05:46:37;;;;;;;;;;;22.20;29.20;;;;;;5054420;28;19908;-61
2021/04/02 05:49:03;;;;;;;;;;;22.20;29.20;;;;;;5054272;28;19919;-62
2021/04/02 05:51:29;;;;;;;;;;;22.20;29.20;;;;;;5054762;28;20011;-61
2021/04/02 05:53:56;;;;;;;;;;;22.20;29.20;;;;;;5054085;28;19983;-60
2021/04/02 05:56:22;;;;;;;;;;;22.20;29.20;;;;;;5054389;28;19924;-61
2021/04/02 05:58:49;;;;;;;;;;;22.30;29.20;;;;;;5053975;28;19971;-61
2021/04/02 06:01:15;;;;;;;;;;;22.30;29.20;;;;;;5053929;28;19966;-61
2021/04/02 06:03:40;;;;;;;;;;;22.20;29.20;;;;;;5052528;28;20000;-62
2021/04/02 06:06:08;;;;;;;;;;;22.20;29.20;;;;;;5054608;28;20260;-61
2021/04/02 06:08:34;;;;;;;;;;;22.20;29.20;;;;;;5054348;28;19920;-62
2021/04/02 06:10:59;;;;;;;;;;;22.20;29.20;;;;;;5054173;28;20252;-61
2021/04/02 06:13:26;;;;;;;;;;;22.20;29.20;;;;;;5053789;28;19909;-60
2021/04/02 06:15:52;;;;;;;;;;;22.20;29.20;;;;;;5053058;28;20343;-61
2021/04/02 06:18:22;;;;;;;;;;;22.20;29.20;;;;;;5053523;28;19939;-61
2021/04/02 06:20:49;;;;;;;;;;;22.20;29.20;;;;;;5044169;28;19924;-62
2021/04/02 06:23:18;;;;;;;;;;;22.20;29.20;;;;;;5043936;28;19908;-61
2021/04/02 06:25:51;;;;;;;;;;;22.20;29.20;;;;;;5054086;28;19991;-62
2021/04/02 06:28:18;;;;;;;;;;;22.20;29.20;;;;;;5053715;28;19982;-61
2021/04/02 06:30:44;;;;;;;;;;;22.20;29.20;;;;;;5054041;28;19919;-61
2021/04/02 06:33:11;;;;;;;;;;;22.20;29.20;;;;;;5053475;28;19912;-60
2021/04/02 06:35:39;;;;;;;;;;;22.20;29.20;;;;;;5054119;28;19962;-61
2021/04/02 06:38:05;;;;;;;;;;;22.20;29.20;;;;;;5053920;28;19908;-61
2021/04/02 06:40:31;;;;;;;;;;;22.20;29.20;;;;;;5056520;28;19908;-62
2021/04/02 06:43:01;;;;;;;;;;;22.20;29.20;;;;;;5057711;28;19912;-62
2021/04/02 06:45:27;;;;;;;;;;;22.20;29.20;;;;;;5058000;28;19916;-63
2021/04/02 06:47:55;;;;;;;;;;;22.20;29.20;;;;;;5036464;28;19920;-63
2021/04/02 06:50:25;;;;;;;;;;;22.20;29.10;;;;;;5045333;28;20050;-61
2021/04/02 06:52:52;;;;;;;;;;;22.20;29.10;;;;;;5057749;28;19912;-61
2021/04/02 06:55:18;;;;;;;;;;;22.20;29.10;;;;;;5057603;28;19920;-61
2021/04/02 06:57:48;;;;;;;;;;;22.20;29.10;;;;;;5056976;28;19908;-61
2021/04/02 07:00:27;;;;;;;;;;;22.20;29.10;;;;;;5056088;28;20022;-59
2021/04/02 07:02:54;;;;;;;;;;;22.20;29.10;;;;;;5044766;28;19909;-61
2021/04/02 07:05:23;;;;;;;;;;;22.30;29.10;;;;;;5056946;28;19917;-59
2021/04/02 07:07:52;;;;;;;;;;;22.40;29.20;;;;;;5056864;28;20229;-59
2021/04/02 07:10:19;;;;;;;;;;;22.40;29.10;;;;;;5056615;28;20267;-59
2021/04/02 07:12:45;;;;;;;;;;;22.40;29.10;;;;;;5056669;28;19913;-60
2021/04/02 07:15:11;;;;;;;;;;;22.50;29.10;;;;;;5057339;28;19912;-59
2021/04/02 07:17:38;;;;;;;;;;;22.50;29.10;;;;;;5057042;28;19951;-57
2021/04/02 07:20:04;;;;;;;;;;;22.60;29.00;;;;;;5038277;28;19915;-60
2021/04/02 07:22:30;;;;;;;;;;;22.60;29.00;;;;;;5054514;28;19908;-61
2021/04/02 07:24:59;;;;;;;;;;;22.60;28.90;;;;;;5053945;28;19978;-59
2021/04/02 07:27:28;;;;;;;;;;;22.60;28.90;;;;;;5056205;28;19917;-61
2021/04/02 07:29:54;;;;;;;;;;;22.60;28.80;;;;;;5056121;28;20344;-58
2021/04/02 07:32:20;;;;;;;;;;;22.70;28.80;;;;;;5045197;28;19940;-61
2021/04/02 07:34:46;;;;;;;;;;;22.70;28.70;;;;;;5052552;28;20344;-58
2021/04/02 07:37:12;;;;;;;;;;;22.70;28.70;;;;;;5055092;28;20359;-61
2021/04/02 07:39:38;;;;;;;;;;;22.70;28.70;;;;;;5057134;28;19909;-60
2021/04/02 07:42:04;;;;;;;;;;;22.80;28.70;;;;;;5056545;28;19916;-60
2021/04/02 07:44:36;;;;;;;;;;;22.80;28.60;;;;;;5056555;28;19927;-61
2021/04/02 07:47:09;;;;;;;;;;;22.80;28.60;;;;;;5055470;28;19909;-61
2021/04/02 07:49:39;;;;;;;;;;;22.80;28.50;;;;;;5053719;28;19940;-59
2021/04/02 07:52:05;;;;;;;;;;;22.80;28.50;;;;;;5058553;28;19908;-59
2021/04/02 07:54:35;;;;;;;;;;;22.80;28.50;;;;;;5056561;28;19971;-59
2021/04/02 07:57:09;;;;;;;;;;;22.80;28.40;;;;;;5056124;28;19931;-60
2021/04/02 07:59:35;;;;;;;;;;;22.90;28.40;;;;;;5041839;28;19912;-59
2021/04/02 08:02:03;;;;;;;;;;;22.90;28.40;;;;;;5036346;28;20024;-60
2021/04/02 08:04:36;;;;;;;;;;;22.90;28.40;;;;;;5052107;28;19917;-59
2021/04/02 08:07:02;;;;;;;;;;;22.90;28.40;;;;;;5056257;28;19909;-59
2021/04/02 08:09:28;;;;;;;;;;;22.90;28.40;;;;;;5055765;28;19985;-60
2021/04/02 08:11:56;;;;;;;;;;;22.90;28.30;;;;;;5053445;28;19920;-58
2021/04/02 08:14:35;;;;;;;;;;;22.90;28.30;;;;;;5055105;28;20355;-60
2021/04/02 08:17:05;;;;;;;;;;;22.90;28.20;;;;;;5053367;28;19962;-61
2021/04/02 08:19:33;;;;;;;;;;;22.90;28.20;;;;;;5052800;28;20252;-60
2021/04/02 08:22:00;;;;;;;;;;;22.90;28.20;;;;;;5053951;28;19909;-61
2021/04/02 08:24:32;;;;;;;;;;;23.00;28.20;;;;;;5050703;28;19916;-60
2021/04/02 08:26:58;;;;;;;;;;;23.00;28.20;;;;;;5052959;28;20244;-58
2021/04/02 08:29:25;;;;;;;;;;;23.00;28.10;;;;;;5054818;28;19909;-62
2021/04/02 08:31:52;;;;;;;;;;;23.00;28.10;;;;;;5054033;28;20225;-61
2021/04/02 08:34:19;;;;;;;;;;;23.00;28.10;;;;;;5062311;28;20012;-60
2021/04/02 08:36:46;;;;;;;;;;;23.00;28.10;;;;;;5048086;28;19908;-59
2021/04/02 08:39:11;;;;;;;;;;;23.00;28.00;;;;;;5052363;28;19974;-58
2021/04/02 08:41:37;;;;;;;;;;;23.00;28.00;;;;;;5056095;28;19916;-60
2021/04/02 08:44:03;;;;;;;;;;;23.00;28.00;;;;;;5053688;28;19921;-61
2021/04/02 08:46:32;;;;;;;;;;;22.90;27.90;;;;;;5051314;28;19919;-61
2021/04/02 08:48:58;;;;;;;;;;;23.00;27.90;;;;;;5053542;28;19915;-59
2021/04/02 08:51:24;;;;;;;;;;;23.00;27.90;;;;;;5049194;28;19908;-60
2021/04/02 08:53:50;;;;;;;;;;;23.00;27.90;;;;;;5052979;28;19926;-60
2021/04/02 08:56:16;;;;;;;;;;;23.00;27.80;;;;;;5053557;28;19927;-60
2021/04/02 08:58:43;;;;;;;;;;;23.00;27.80;;;;;;5051276;28;19935;-57
2021/04/02 09:01:09;;;;;;;;;;;23.00;27.70;;;;;;5051513;28;19960;-59
2021/04/02 09:03:35;;;;;;;;;;;23.00;27.70;;;;;;5050612;28;19940;-59
2021/04/02 09:06:01;;;;;;;;;;;23.00;27.70;;;;;;5052841;28;19925;-58
2021/04/02 09:08:27;;;;;;;;;;;23.00;27.60;;;;;;5053677;28;20318;-59
2021/04/02 09:10:53;;;;;;;;;;;23.00;27.50;;;;;;5048130;28;20074;-58
2021/04/02 09:13:34;;;;;;;;;;;23.00;27.50;;;;;;5052849;28;19976;-59
2021/04/02 09:16:08;;;;;;;;;;;23.00;27.50;;;;;;5048901;28;19958;-59
2021/04/02 09:18:34;;;;;;;;;;;23.00;27.40;;;;;;5049204;28;19917;-60
2021/04/02 09:21:01;;;;;;;;;;;23.00;27.40;;;;;;5053617;28;19908;-59
2021/04/02 09:23:27;;;;;;;;;;;23.00;27.40;;;;;;5053102;28;19909;-56
2021/04/02 09:25:53;;;;;;;;;;;23.10;27.40;;;;;;5052600;28;19928;-58
2021/04/02 09:28:24;;;;;;;;;;;23.10;27.30;;;;;;5052572;28;19909;-59
2021/04/02 09:30:50;;;;;;;;;;;23.10;27.30;;;;;;5053510;28;19920;-62
2021/04/02 09:33:16;;;;;;;;;;;23.20;27.30;;;;;;5051487;28;19915;-58
2021/04/02 09:35:42;;;;;;;;;;;23.20;27.30;;;;;;5053523;28;19908;-56
2021/04/02 09:38:08;;;;;;;;;;;23.20;27.20;;;;;;5053214;28;19944;-57
2021/04/02 09:40:34;;;;;;;;;;;23.30;27.30;;;;;;5053527;28;20006;-50
2021/04/02 09:43:00;;;;;;;;;;;23.30;27.30;;;;;;5052765;28;19928;-57
2021/04/02 09:45:26;;;;;;;;;;;23.30;27.30;;;;;;5052745;28;19982;-58
2021/04/02 09:47:52;;;;;;;;;;;23.30;27.30;;;;;;5051883;28;19932;-56
2021/04/02 09:50:18;;;;;;;;;;;23.30;27.30;;;;;;5052565;28;20336;-57
2021/04/02 09:52:44;;;;;;;;;;;23.40;27.30;;;;;;5052128;28;19975;-61
2021/04/02 09:55:10;;;;;;;;;;;23.40;27.30;;;;;;5052665;28;19916;-54
2021/04/02 09:57:36;;;;;;;;;;;23.40;27.30;;;;;;5051278;28;19917;-55
2021/04/02 10:00:03;;;;;;;;;;;23.40;27.30;;;;;;5052512;28;20350;-58
2021/04/02 10:02:35;;;;;;;;;;;23.50;27.40;;;;;;5052119;28;19912;-51
2021/04/02 10:05:01;;;;;;;;;;;23.50;27.20;;;;;;5049558;28;19924;-56
2021/04/02 10:07:27;;;;;;;;;;;23.50;27.20;;;;;;5053124;28;19963;-58
2021/04/02 10:09:52;;;;;;;;;;;23.50;27.30;;;;;;5038671;28;20283;-55
2021/04/02 10:12:18;;;;;;;;;;;23.50;27.20;;;;;;5047746;28;20000;-57
2021/04/02 10:14:44;;;;;;;;;;;23.50;27.20;;;;;;5057835;28;20343;-54
2021/04/02 10:17:11;;;;;;;;;;;23.50;27.20;;;;;;5057843;28;19939;-58
2021/04/02 10:19:37;;;;;;;;;;;23.50;27.20;;;;;;5054860;28;20007;-57
2021/04/02 10:22:04;;;;;;;;;;;23.50;27.10;;;;;;5056820;28;20225;-56
2021/04/02 10:24:30;;;;;;;;;;;23.50;27.10;;;;;;5054769;28;20354;-57
2021/04/02 10:26:57;;;;;;;;;;;23.50;27.10;;;;;;5056373;28;19925;-54
2021/04/02 10:29:23;;;;;;;;;;;23.50;27.10;;;;;;5055277;28;19916;-55
2021/04/02 10:31:48;;;;;;;;;;;23.50;27.10;;;;;;5056688;28;20236;-54
2021/04/02 10:34:14;;;;;;;;;;;23.50;27.00;;;;;;5056321;28;19909;-55
2021/04/02 10:36:40;;;;;;;;;;;23.50;27.00;;;;;;5056329;28;19912;-58
2021/04/02 10:39:05;;;;;;;;;;;23.50;27.10;;;;;;5056895;28;20267;-55
2021/04/02 10:41:31;;;;;;;;;;;23.50;27.10;;;;;;5056703;28;19915;-55
2021/04/02 10:43:56;;;;;;;;;;;23.50;27.10;;;;;;5053601;28;20375;-54
2021/04/02 10:46:22;;;;;;;;;;;23.50;27.10;;;;;;5055628;28;20319;-54
2021/04/02 10:48:48;;;;;;;;;;;23.50;27.10;;;;;;5055081;28;19912;-58
2021/04/02 10:51:14;;;;;;;;;;;23.40;27.30;;;;;;5053821;28;19912;-55
2021/04/02 10:53:40;;;;;;;;;;;23.50;27.50;;;;;;5054898;28;19926;-54
2021/04/02 10:56:06;;;;;;;;;;;23.50;27.70;;;;;;5052931;28;19977;-57
2021/04/02 10:58:32;;;;;;;;;;;23.60;27.80;;;;;;5052712;28;19909;-57
2021/04/02 11:00:58;;;;;;;;;;;23.60;27.80;;;;;;5053022;28;19961;-55
2021/04/02 11:03:23;;;;;;;;;;;23.70;27.80;;;;;;5055844;28;19909;-56
2021/04/02 11:05:49;;;;;;;;;;;23.70;27.80;;;;;;5067337;28;19990;-52
2021/04/02 11:08:15;;;;;;;;;;;23.80;27.80;;;;;;5056627;28;20000;-57
2021/04/02 11:10:41;;;;;;;;;;;23.80;27.80;;;;;;5056769;28;19912;-56
2021/04/02 11:13:07;;;;;;;;;;;23.70;27.80;;;;;;5056155;28;19924;-53
2021/04/02 11:15:33;;;;;;;;;;;23.70;27.90;;;;;;5056913;28;20391;-54
2021/04/02 11:17:58;;;;;;;;;;;23.80;27.90;;;;;;5056748;28;19909;-54
2021/04/02 11:20:26;;;;;;;;;;;23.70;27.90;;;;;;5055975;28;21529;-54
2021/04/02 11:22:52;;;;;;;;;;;23.70;27.90;;;;;;5055092;28;19912;-54
2021/04/02 11:25:18;;;;;;;;;;;23.70;27.90;;;;;;5054726;28;19917;-56
2021/04/02 11:27:44;;;;;;;;;;;23.80;27.90;;;;;;5052883;28;20594;-54
2021/04/02 11:30:11;;;;;;;;;;;23.80;27.90;;;;;;5050444;28;19925;-53
2021/04/02 11:32:43;;;;;;;;;;;23.80;27.80;;;;;;5050184;28;19909;-53
2021/04/02 11:35:11;;;;;;;;;;;23.70;27.80;;;;;;5051298;28;19927;-58
2021/04/02 11:37:37;;;;;;;;;;;23.70;27.80;;;;;;5054857;28;19917;-52
2021/04/02 11:40:07;;;;;;;;;;;23.70;27.80;;;;;;5056580;28;19908;-56
2021/04/02 11:42:33;;;;;;;;;;;23.80;27.90;;;;;;5055780;28;19909;-57
2021/04/02 11:44:59;;;;;;;;;;;23.90;27.90;;;;;;5053979;28;20114;-54
2021/04/02 11:47:24;;;;;;;;;;;23.90;27.90;;;;;;5050812;28;19919;-53
2021/04/02 11:49:50;;;;;;;;;;;23.90;27.90;;;;;;5054096;28;19954;-56
2021/04/02 11:52:16;;;;;;;;;;;23.90;27.90;;;;;;5054740;28;19909;-57
2021/04/02 11:54:41;;;;;;;;;;;23.90;27.80;;;;;;5050048;28;20254;-58
2021/04/02 11:57:08;;;;;;;;;;;24.00;27.90;;;;;;5049650;28;20324;-58
2021/04/02 11:59:34;;;;;;;;;;;23.90;27.80;;;;;;5051937;28;19920;-57
2021/04/02 12:02:00;;;;;;;;;;;23.90;27.80;;;;;;5052361;28;20355;-56
2021/04/02 12:04:26;;;;;;;;;;;23.90;27.80;;;;;;5045537;28;19974;-58
2021/04/02 12:06:51;;;;;;;;;;;23.90;27.70;;;;;;5055077;28;19913;-55
2021/04/02 12:09:17;;;;;;;;;;;23.90;27.70;;;;;;5055058;28;20352;-60
2021/04/02 12:11:43;;;;;;;;;;;23.90;27.70;;;;;;5052659;28;20350;-58
2021/04/02 12:14:09;;;;;;;;;;;23.90;27.70;;;;;;5053912;28;19917;-56
2021/04/02 12:16:36;;;;;;;;;;;23.90;27.70;;;;;;5054214;28;19909;-54
2021/04/02 12:19:03;;;;;;;;;;;23.90;27.70;;;;;;5052640;28;19917;-53
2021/04/02 12:21:29;;;;;;;;;;;23.80;27.70;;;;;;5054829;28;19917;-54
2021/04/02 12:23:54;;;;;;;;;;;23.80;27.70;;;;;;5053957;28;19922;-55
2021/04/02 12:26:20;;;;;;;;;;;23.80;27.70;;;;;;5051397;28;19935;-64
2021/04/02 12:28:46;;;;;;;;;;;23.80;27.70;;;;;;5051057;28;19908;-61
2021/04/02 12:31:13;;;;;;;;;;;23.80;27.70;;;;;;5054185;28;19959;-58
2021/04/02 12:33:39;;;;;;;;;;;23.80;27.70;;;;;;5033934;28;19978;-56
2021/04/02 12:36:08;;;;;;;;;;;23.80;27.70;;;;;;5053176;28;19916;-61
2021/04/02 12:38:34;;;;;;;;;;;23.80;27.70;;;;;;5053556;28;20302;-57
2021/04/02 12:43:15;;;;;;;1.60;0.47;;;23.80;27.30;;;;;;5041196;28;20826;-58
2021/04/02 12:45:41;;;;;;;1.02;0.40;;;23.80;27.60;;;;;;5049281;28;20033;-54
2021/04/02 12:48:07;;;;;;;0.95;0.35;;;23.70;27.50;;;;;;5043880;28;20025;-57
2021/04/02 12:50:33;;;;;;;1.00;0.50;;;23.80;27.60;;;;;;5035462;28;20099;-51
2021/04/02 12:52:59;;;;;;;0.85;0.40;;;23.70;27.50;;;;;;5037647;28;20087;-50
2021/04/02 12:55:28;;;;;;;2.78;0.73;;;23.70;27.50;;;;;;5038629;28;20026;-53
2021/04/02 12:57:55;;;;;;;1.60;0.75;;;23.80;27.50;;;;;;5041384;28;20017;-51
2021/04/02 13:00:23;;;;;;;0.93;0.43;;;23.80;27.50;;;;;;5042638;28;20045;-60
2021/04/02 13:02:50;;;;;;;2.40;0.65;;;23.80;27.50;;;;;;5037671;28;20331;-60
2021/04/02 13:05:16;;;;;;;1.15;0.93;;;23.70;27.40;;;;;;5042380;28;20023;-59
2021/04/02 13:07:43;;;;;;;2.33;1.20;;;23.70;27.40;;;;;;5042662;28;20108;-60
2021/04/02 13:10:12;;;;;;;3.60;1.83;;;23.70;27.40;;;;;;5041899;28;20105;-57
2021/04/02 13:12:52;;;;;;;4.88;2.95;;;23.60;27.40;;;;;;5034904;28;20132;-59
2021/04/02 13:15:19;;;;;;;5.60;3.58;;;23.70;27.40;;;;;;5041002;28;20125;-59
2021/04/02 13:17:47;;;;;;;7.57;4.85;;;23.70;27.50;;;;;;5035663;28;20013;-57
2021/04/02 13:20:25;;;;;;;10.35;6.28;;;23.60;27.50;;;;;;5040014;28;20510;-58
2021/04/02 13:22:51;;;;;;;13.13;7.13;;;23.60;27.50;;;;;;5041109;28;20144;-57
2021/04/02 13:25:17;;;;;;;13.32;7.57;;;23.60;27.50;;;;;;5039820;28;20469;-59
2021/04/02 13:27:43;;;;;;;15.35;8.77;;;23.60;27.40;;;;;;5037673;28;20433;-57
2021/04/02 13:30:12;;;;;;;16.20;9.70;;;23.50;27.40;;;;;;5043379;28;20044;-59
2021/04/02 13:32:51;;;;;;;15.73;9.35;;;23.50;27.40;;;;;;5042120;28;21874;-59
2021/04/02 13:35:19;;;;;;;15.38;10.07;;;23.50;27.30;;;;;;5035199;28;20066;-52
2021/04/02 13:37:45;;;;;;;14.98;9.82;;;23.50;27.40;;;;;;5046520;28;20029;-57
2021/04/02 13:40:12;;;;;;;15.00;10.38;;;23.40;27.40;;;;;;5043283;28;20094;-55
2021/04/02 13:42:42;;;;;;;19.85;12.40;;;23.40;27.50;;;;;;5053587;28;20037;-60
2021/04/02 13:45:10;;;;;;;21.35;14.07;;;23.40;27.50;;;;;;5054773;28;20060;-59
2021/04/02 13:47:38;;;;;;;22.83;14.95;;;23.40;27.50;;;;;;5054546;28;20032;-58
2021/04/02 13:50:22;;;;;;;23.42;14.50;;;23.30;27.50;;;;;;5058148;28;20071;-59
2021/04/02 13:52:49;;;;;;;19.70;12.98;;;23.40;27.60;;;;;;5058275;28;20045;-56
2021/04/02 13:55:16;;;;;;;25.80;16.27;;;23.40;27.80;;;;;;5032141;28;20021;-56
2021/04/02 13:57:43;;;;;;;25.38;16.80;;;23.30;27.90;;;;;;5044175;28;20039;-50
2021/04/02 14:00:13;;;;;;;32.70;22.13;;;23.30;28.10;;;;;;5040181;28;20038;-53
2021/04/02 14:02:41;;;;;;;39.50;26.52;;;23.40;28.40;;;;;;5049975;28;20502;-49
2021/04/02 14:05:08;;;;;;;44.35;30.77;;;23.40;28.60;;;;;;5018311;28;20123;-52
2021/04/02 14:07:34;;;;;;;49.05;32.25;;;23.30;28.90;;;;;;5024446;28;20021;-54
2021/04/02 14:10:00;;;;;;;51.25;34.88;;;23.30;29.10;;;;;;5040897;28;20029;-54